Time;durP1;ratioP1;P1;durP2;ratioP2;P2;SDS_P1;SDS_P2;PMS_P1;PMS_P2;Temp;Humidity;BMP_temperature;BMP_pressure;BME280_temperature;BME280_humidity;BME280_pressure;Samples;Min_cycle;Max_cycle;Signal;HPM_P1;HPM_P2
2022/03/12 08:15:59;;;;;;;9.98;4.75;;;;;;;1.12;46.97;99967.31;5530540;23;20053;-68
2022/03/12 08:18:25;;;;;;;6.60;4.55;;;;;;;1.09;47.33;99957.75;4860491;29;20115;-69
2022/03/12 08:20:50;;;;;;;8.82;4.45;;;;;;;1.13;47.53;99964.59;4860380;29;20049;-68
2022/03/12 08:23:15;;;;;;;9.98;5.18;;;;;;;1.20;47.28;99953.03;4860228;29;20080;-69
2022/03/12 08:25:41;;;;;;;11.18;4.78;;;;;;;1.29;47.19;99957.16;4860407;29;20059;-68
2022/03/12 08:28:06;;;;;;;9.63;5.18;;;;;;;1.29;47.45;99960.66;4829332;29;20052;-69
2022/03/12 08:30:32;;;;;;;12.80;4.47;;;;;;;1.32;47.24;99959.72;4844675;29;20092;-69
2022/03/12 08:32:57;;;;;;;8.32;4.82;;;;;;;1.37;47.15;99971.78;4844810;29;20380;-69
2022/03/12 08:35:22;;;;;;;8.32;4.68;;;;;;;1.46;46.83;99957.56;4860476;29;20052;-68
2022/03/12 08:37:46;;;;;;;8.65;5.38;;;;;;;1.43;46.50;99961.13;4861677;29;20075;-69
2022/03/12 08:40:13;;;;;;;8.75;4.88;;;;;;;1.36;46.83;99959.56;4845661;29;20052;-69
2022/03/12 08:42:38;;;;;;;8.35;4.82;;;;;;;1.31;46.70;99971.13;4845398;29;20044;-68
2022/03/12 08:45:04;;;;;;;7.45;4.50;;;;;;;1.29;47.46;99968.53;4863817;29;20070;-68
2022/03/12 08:47:29;;;;;;;10.07;5.95;;;;;;;1.29;47.44;99976.41;4863987;29;20546;-68
2022/03/12 08:49:54;;;;;;;8.00;4.45;;;;;;;1.25;47.47;99971.28;4848747;29;20455;-68
2022/03/12 08:52:20;;;;;;;9.02;5.15;;;;;;;1.18;47.45;99972.38;4864945;29;20155;-67
2022/03/12 08:54:45;;;;;;;7.40;4.95;;;;;;;1.05;47.20;99970.09;4865456;29;20051;-68
2022/03/12 08:57:09;;;;;;;16.55;5.55;;;;;;;0.98;47.66;99973.78;4865444;29;20059;-67
2022/03/12 08:59:34;;;;;;;12.02;5.70;;;;;;;0.95;48.04;99984.38;4864283;29;20045;-68
2022/03/12 09:01:59;;;;;;;11.02;5.70;;;;;;;0.94;47.88;99974.75;4863878;29;20040;-68
2022/03/12 09:04:25;;;;;;;9.13;4.93;;;;;;;0.93;47.98;99973.03;4847870;29;20119;-67
2022/03/12 09:06:50;;;;;;;7.82;5.70;;;;;;;0.95;48.29;99973.00;4863888;29;20127;-67
2022/03/12 09:09:15;;;;;;;7.13;5.03;;;;;;;1.05;48.25;99977.09;4864624;29;20123;-69
2022/03/12 09:11:40;;;;;;;7.78;4.65;;;;;;;1.16;48.45;99971.53;4864666;29;20044;-68
2022/03/12 09:14:05;;;;;;;8.15;5.05;;;;;;;1.28;47.95;99977.31;4864677;29;20058;-67
2022/03/12 09:16:31;;;;;;;9.13;4.28;;;;;;;1.40;47.73;99990.09;4864683;29;20065;-68
2022/03/12 09:18:56;;;;;;;8.40;5.10;;;;;;;1.40;47.34;99970.84;4863516;29;20048;-67
2022/03/12 09:21:20;;;;;;;9.70;5.78;;;;;;;1.42;47.78;99984.81;4863885;29;20051;-68
2022/03/12 09:23:45;;;;;;;12.15;5.82;;;;;;;1.40;47.28;99982.22;4849180;29;20048;-69
2022/03/12 09:26:13;;;;;;;9.18;5.35;;;;;;;1.45;47.52;99975.09;4866775;29;20076;-70
2022/03/12 09:28:38;;;;;;;7.00;5.07;;;;;;;1.53;47.09;99974.84;4856860;29;20044;-68
2022/03/12 09:31:06;;;;;;;9.13;4.85;;;;;;;1.63;46.95;99976.28;4855853;29;20071;-69
2022/03/12 09:33:31;;;;;;;8.65;4.60;;;;;;;1.76;46.77;99974.16;4873877;29;20044;-68
2022/03/12 09:35:56;;;;;;;7.18;4.18;;;;;;;1.81;46.16;99977.50;4865488;29;20131;-68
2022/03/12 09:38:22;;;;;;;7.93;4.72;;;;;;;1.79;46.49;99977.56;4866989;29;20103;-70
2022/03/12 09:40:47;;;;;;;7.45;4.38;;;;;;;1.88;46.04;99978.19;4865232;29;20057;-68
2022/03/12 09:43:12;;;;;;;8.05;4.35;;;;;;;1.91;46.23;99989.47;4849281;29;20040;-70
2022/03/12 09:45:38;;;;;;;6.85;4.50;;;;;;;1.94;46.12;99993.75;4864280;29;20454;-67
2022/03/12 09:48:04;;;;;;;5.10;3.78;;;;;;;1.93;46.32;99986.78;4864306;29;20111;-68
2022/03/12 09:50:29;;;;;;;6.72;4.05;;;;;;;1.87;46.39;99998.34;4862692;29;20127;-69
2022/03/12 09:52:56;;;;;;;4.63;3.60;;;;;;;1.80;46.30;99992.44;4864149;29;20105;-69
2022/03/12 09:55:21;;;;;;;4.65;3.58;;;;;;;1.76;46.20;99996.03;4863397;29;20052;-69
2022/03/12 09:57:48;;;;;;;6.50;3.95;;;;;;;1.71;46.12;99999.72;4862931;29;20148;-68
2022/03/12 10:00:14;;;;;;;8.68;4.75;;;;;;;1.61;46.75;100000.88;4864678;29;20567;-68
2022/03/12 10:02:39;;;;;;;6.70;4.20;;;;;;;1.58;46.47;99995.75;4864263;29;20044;-68
2022/03/12 10:05:04;;;;;;;7.80;4.32;;;;;;;1.48;46.62;99994.25;4864942;29;20483;-69
2022/03/12 10:07:29;;;;;;;7.22;4.40;;;;;;;1.39;47.14;99988.38;4873447;29;20854;-68
2022/03/12 10:09:54;;;;;;;9.05;5.18;;;;;;;1.32;47.07;99991.22;4872028;29;20414;-68
2022/03/12 10:12:19;;;;;;;6.85;4.22;;;;;;;1.29;47.16;99984.28;4875639;29;20040;-69
2022/03/12 10:14:48;;;;;;;6.57;4.25;;;;;;;1.31;47.09;99992.13;4875836;29;20079;-68
2022/03/12 10:17:13;;;;;;;5.75;3.95;;;;;;;1.31;47.37;99992.13;4875218;29;20052;-68
2022/03/12 10:19:38;;;;;;;8.95;4.53;;;;;;;1.33;47.46;99987.69;4857896;29;20052;-69
2022/03/12 10:22:04;;;;;;;5.95;4.72;;;;;;;1.37;47.57;99997.19;4871927;29;20044;-69
2022/03/12 10:24:29;;;;;;;11.38;5.20;;;;;;;1.43;47.72;99986.53;4871279;29;20549;-69
2022/03/12 10:26:54;;;;;;;13.27;5.47;;;;;;;1.44;47.53;99993.50;4881626;29;20519;-69
2022/03/12 10:29:19;;;;;;;10.65;5.75;;;;;;;1.41;48.19;99991.81;4882136;29;20055;-69
2022/03/12 10:31:44;;;;;;;10.15;5.70;;;;;;;1.41;47.71;99996.22;4865221;29;20051;-69
2022/03/12 10:34:18;;;;;;;12.88;5.70;;;;;;;1.44;48.23;100001.38;4880638;29;20048;-67
2022/03/12 10:36:43;;;;;;;12.43;4.53;;;;;;;1.42;48.02;99995.31;4865255;29;20036;-67
2022/03/12 10:39:09;;;;;;;10.10;5.63;;;;;;;1.38;47.99;99993.66;4880793;29;20052;-67
2022/03/12 10:41:36;;;;;;;8.65;5.45;;;;;;;1.29;48.23;99992.16;4880148;29;20040;-68
2022/03/12 10:44:01;;;;;;;10.35;6.20;;;;;;;1.25;48.73;100002.78;4880313;29;20447;-67
2022/03/12 10:46:28;;;;;;;8.70;5.85;;;;;;;1.24;49.04;99996.69;4880669;29;20052;-68
2022/03/12 10:48:58;;;;;;;9.38;5.03;;;;;;;1.28;49.70;100007.97;4881851;29;20056;-68
2022/03/12 10:51:29;;;;;;;13.85;5.97;;;;;;;1.35;48.97;99999.91;4881916;29;20048;-68
2022/03/12 10:54:08;;;;;;;9.70;5.10;;;;;;;1.40;48.79;100000.59;4881089;29;20052;-69
2022/03/12 10:56:42;;;;;;;11.02;5.28;;;;;;;1.49;48.79;100002.09;4880809;29;20064;-67
2022/03/12 10:59:15;;;;;;;9.33;5.50;;;;;;;1.59;48.37;100000.06;4865388;29;20052;-68
2022/03/12 11:01:48;;;;;;;11.15;5.43;;;;;;;1.60;48.77;100002.66;4880648;29;20392;-69
2022/03/12 11:04:18;;;;;;;12.60;6.13;;;;;;;1.61;48.60;100008.78;4881969;29;20147;-70
2022/03/12 11:06:43;;;;;;;10.65;6.25;;;;;;;1.63;48.62;100009.59;4882018;29;20103;-68
2022/03/12 11:09:13;;;;;;;9.02;5.50;;;;;;;1.67;48.46;100004.22;4864041;29;20503;-67
2022/03/12 11:11:39;;;;;;;9.73;6.22;;;;;;;1.74;48.33;100008.38;4881529;29;20044;-68
2022/03/12 11:14:07;;;;;;;9.60;5.40;;;;;;;1.73;48.00;100006.66;4881399;29;20133;-68
2022/03/12 11:16:33;;;;;;;12.75;5.68;;;;;;;1.72;48.16;100015.44;4880570;29;20059;-68
2022/03/12 11:19:11;;;;;;;14.50;7.78;;;;;;;1.74;48.43;100015.38;4881828;29;20056;-67
2022/03/12 11:21:41;;;;;;;12.05;6.03;;;;;;;1.69;48.41;100017.31;4881546;29;20499;-68
2022/03/12 11:24:43;;;;;;;10.15;5.55;;;;;;;1.73;47.88;100017.16;4880241;29;20135;-68
2022/03/12 11:27:13;;;;;;;9.52;6.25;;;;;;;1.70;48.35;100008.50;4881058;29;20533;-68
2022/03/12 11:29:38;;;;;;;8.60;5.40;;;;;;;1.64;48.34;100016.56;4884725;29;20575;-68
2022/03/12 11:32:09;;;;;;;11.50;5.05;;;;;;;1.61;48.66;100021.91;4886480;29;20040;-70
2022/03/12 11:34:43;;;;;;;12.68;5.55;;;;;;;1.61;48.62;100020.13;4883087;29;20043;-68
2022/03/12 11:37:21;;;;;;;9.18;5.38;;;;;;;1.56;48.60;100024.69;4880497;29;20066;-68
2022/03/12 11:39:48;;;;;;;9.63;5.25;;;;;;;1.49;49.03;100022.25;4879915;29;20044;-68
2022/03/12 11:42:20;;;;;;;13.68;7.00;;;;;;;1.47;49.01;100030.19;4881478;29;20051;-68
2022/03/12 11:44:52;;;;;;;8.68;5.53;;;;;;;1.51;48.88;100013.44;4879580;29;20044;-69
2022/03/12 11:47:20;;;;;;;11.45;5.70;;;;;;;1.53;49.04;100016.88;4879578;29;20570;-68
2022/03/12 11:49:45;;;;;;;10.05;5.50;;;;;;;1.54;48.92;100021.25;4881132;29;20481;-69
2022/03/12 11:52:10;;;;;;;12.52;5.88;;;;;;;1.54;48.97;100015.97;4879630;29;20115;-68
2022/03/12 11:54:41;;;;;;;9.70;5.55;;;;;;;1.57;49.17;100015.91;4864385;29;20040;-69
2022/03/12 11:57:08;;;;;;;8.35;5.55;;;;;;;1.62;48.99;100018.38;4880856;29;20495;-68
2022/03/12 11:59:32;;;;;;;10.55;5.38;;;;;;;1.61;49.08;100027.16;4881027;29;20146;-68
2022/03/12 12:02:01;;;;;;;11.95;6.03;;;;;;;1.64;49.56;100027.94;4864172;29;20163;-68
2022/03/12 12:04:29;;;;;;;9.20;5.28;;;;;;;1.69;48.76;100035.72;4864160;29;20060;-68
2022/03/12 12:06:55;;;;;;;11.35;5.43;;;;;;;1.71;48.75;100032.09;4879776;29;20800;-67
2022/03/12 12:09:20;;;;;;;10.00;5.40;;;;;;;1.68;48.95;100020.84;4880699;29;20543;-70
2022/03/12 12:11:45;;;;;;;8.38;5.10;;;;;;;1.67;48.66;100027.00;4880752;29;20986;-69
2022/03/12 12:14:10;;;;;;;10.15;5.30;;;;;;;1.68;48.71;100029.59;4848394;29;20088;-69
2022/03/12 12:16:35;;;;;;;14.52;6.40;;;;;;;1.67;48.86;100027.00;4879940;29;20528;-70
2022/03/12 12:19:00;;;;;;;11.10;5.15;;;;;;;1.67;48.74;100033.13;4866719;29;20151;-68
2022/03/12 12:21:25;;;;;;;10.98;5.68;;;;;;;1.63;48.91;100034.09;4866384;29;20127;-67
2022/03/12 12:23:51;;;;;;;8.68;5.15;;;;;;;1.57;48.80;100036.94;4869116;29;20051;-70
2022/03/12 12:26:16;;;;;;;10.77;5.72;;;;;;;1.49;48.94;100044.13;4867428;29;20040;-71
2022/03/12 12:28:52;;;;;;;9.68;5.35;;;;;;;1.48;49.47;100049.44;4884081;29;20261;-69
2022/03/12 12:31:26;;;;;;;9.05;4.95;;;;;;;1.39;49.54;100048.78;4882598;29;20044;-70
2022/03/12 12:33:52;;;;;;;8.80;5.43;;;;;;;1.33;49.86;100058.63;4882594;29;20079;-70
2022/03/12 12:36:18;;;;;;;10.35;5.43;;;;;;;1.27;50.10;100050.88;4883572;29;20043;-69
2022/03/12 12:39:05;;;;;;;12.48;5.18;;;;;;;1.30;49.61;100054.31;4883824;29;20079;-69
2022/03/12 12:41:53;;;;;;;9.88;5.90;;;;;;;1.30;49.59;100053.44;4866842;29;20123;-70
2022/03/12 12:44:48;;;;;;;11.48;6.07;;;;;;;1.29;49.55;100051.72;4882727;29;20063;-69
2022/03/12 12:47:18;;;;;;;8.32;5.35;;;;;;;1.23;50.18;100051.91;4881291;29;20051;-69
2022/03/12 12:49:54;;;;;;;9.65;5.38;;;;;;;1.27;50.22;100049.13;4881389;29;20495;-70
2022/03/12 12:52:18;;;;;;;13.07;5.55;;;;;;;1.26;50.22;100067.53;4849825;29;20075;-70
2022/03/12 12:54:43;;;;;;;8.07;5.53;;;;;;;1.26;50.08;100064.91;4866325;29;20139;-70
2022/03/12 12:57:11;;;;;;;9.68;5.07;;;;;;;1.21;50.39;100064.19;4881337;29;20064;-72
2022/03/12 12:59:41;;;;;;;12.77;6.07;;;;;;;1.19;50.75;100066.88;4870546;29;20147;-71
2022/03/12 13:02:06;;;;;;;11.63;6.03;;;;;;;1.14;50.64;100060.00;4849467;29;20440;-71
2022/03/12 13:04:49;;;;;;;10.05;6.18;;;;;;;1.16;50.60;100068.69;4864978;29;20443;-69
2022/03/12 13:07:19;;;;;;;14.15;5.95;;;;;;;1.11;50.73;100070.59;4849282;29;20120;-70
2022/03/12 13:09:55;;;;;;;8.93;5.22;;;;;;;1.06;50.95;100071.56;4827226;29;20594;-71
2022/03/12 13:12:39;;;;;;;8.82;4.93;;;;;;;1.03;50.91;100065.53;4855551;29;20080;-69
2022/03/12 13:15:13;;;;;;;11.50;5.57;;;;;;;0.99;50.82;100063.91;4824029;29;20500;-69
2022/03/12 13:17:38;;;;;;;9.50;6.07;;;;;;;0.88;51.24;100069.44;4861798;29;20135;-70
2022/03/12 13:20:30;;;;;;;9.13;5.47;;;;;;;0.90;50.98;100070.25;4857509;29;20044;-69
2022/03/12 13:22:58;;;;;;;11.70;5.70;;;;;;;0.81;51.62;100069.59;4829499;29;20056;-69
2022/03/12 13:25:22;;;;;;;11.00;5.82;;;;;;;0.73;51.99;100068.03;4843654;29;20049;-69
2022/03/12 13:27:59;;;;;;;9.93;5.93;;;;;;;0.74;51.70;100063.66;4843944;29;20412;-70
2022/03/12 13:30:25;;;;;;;8.93;5.40;;;;;;;0.66;51.93;100071.72;4845683;29;20087;-69
2022/03/12 13:32:58;;;;;;;9.75;5.75;;;;;;;0.66;52.41;100076.97;4847556;29;20472;-70
2022/03/12 13:35:29;;;;;;;10.68;6.07;;;;;;;0.64;53.22;100073.53;4844356;29;20052;-70
2022/03/12 13:37:55;;;;;;;11.68;6.15;;;;;;;0.65;52.78;100074.38;4845271;29;20076;-70
2022/03/12 13:40:22;;;;;;;7.43;4.90;;;;;;;0.68;52.79;100079.53;4846416;29;20053;-69
2022/03/12 13:42:49;;;;;;;8.45;5.35;;;;;;;0.71;53.08;100077.72;4862884;29;20068;-69
2022/03/12 13:45:16;;;;;;;10.40;5.72;;;;;;;0.76;53.24;100079.38;4866993;29;20053;-70
2022/03/12 13:47:59;;;;;;;20.52;11.70;;;;;;;0.85;53.13;100076.50;4834779;29;20069;-69
2022/03/12 13:50:25;;;;;;;9.80;5.45;;;;;;;0.84;52.73;100087.91;4854723;29;20131;-71
2022/03/12 13:52:57;;;;;;;10.35;6.03;;;;;;;0.85;53.19;100087.00;4863181;29;20045;-70
2022/03/12 13:55:24;;;;;;;9.02;4.63;;;;;;;0.84;53.17;100086.16;4829995;29;20143;-70
2022/03/12 13:57:50;;;;;;;10.30;5.95;;;;;;;0.84;53.03;100091.41;4870692;29;20039;-70
2022/03/12 14:00:18;;;;;;;8.98;5.22;;;;;;;0.85;52.98;100093.13;4853279;29;20558;-70
2022/03/12 14:02:47;;;;;;;8.43;5.53;;;;;;;0.85;53.12;100093.13;4846374;29;20080;-70
2022/03/12 14:05:28;;;;;;;8.50;5.28;;;;;;;0.84;53.00;100098.41;4865963;29;20060;-69
2022/03/12 14:07:55;;;;;;;11.10;6.57;;;;;;;0.76;53.04;100097.75;4845038;29;20055;-70
2022/03/12 14:10:24;;;;;;;10.45;5.40;;;;;;;0.75;52.73;100103.88;4843856;29;20124;-71
2022/03/12 14:13:00;;;;;;;9.48;6.07;;;;;;;0.70;53.86;100107.47;4847183;29;20044;-70
2022/03/12 14:15:27;;;;;;;7.95;5.72;;;;;;;0.63;53.42;100110.28;4870927;29;20044;-70
2022/03/12 14:17:53;;;;;;;10.55;5.95;;;;;;;0.59;53.48;100109.50;4854856;29;20505;-70
2022/03/12 14:20:18;;;;;;;9.57;5.57;;;;;;;0.56;53.74;100116.59;4845755;29;20047;-70
2022/03/12 14:22:45;;;;;;;10.95;5.68;;;;;;;0.55;53.78;100113.09;4871312;29;20036;-70
2022/03/12 14:25:12;;;;;;;9.55;5.50;;;;;;;0.54;53.76;100121.00;4870548;29;20055;-70
2022/03/12 14:27:39;;;;;;;10.00;5.93;;;;;;;0.51;54.06;100121.06;4873634;29;20040;-71
2022/03/12 14:30:08;;;;;;;9.18;5.93;;;;;;;0.50;54.20;100124.59;4882920;29;20044;-70
2022/03/12 14:32:32;;;;;;;9.80;5.90;;;;;;;0.45;54.48;100132.56;4847626;29;20040;-70
2022/03/12 14:34:58;;;;;;;9.48;5.68;;;;;;;0.45;53.94;100127.34;4863540;29;20052;-71
2022/03/12 14:37:23;;;;;;;12.95;7.07;;;;;;;0.43;54.07;100125.63;4847257;29;20042;-70
2022/03/12 14:39:49;;;;;;;11.38;5.45;;;;;;;0.39;54.17;100134.47;4864397;29;20052;-70
2022/03/12 14:42:14;;;;;;;14.23;5.82;;;;;;;0.36;54.39;100132.75;4864108;29;20040;-69
2022/03/12 14:44:41;;;;;;;13.98;6.00;;;;;;;0.31;55.08;100127.63;4863680;29;20048;-69
2022/03/12 14:47:08;;;;;;;16.65;6.00;;;;;;;0.28;54.67;100132.94;4847905;29;20128;-70
2022/03/12 14:49:37;;;;;;;11.90;6.57;;;;;;;0.24;55.08;100131.25;4863357;29;20084;-70
2022/03/12 14:52:03;;;;;;;9.45;6.13;;;;;;;0.23;55.88;100133.91;4866104;29;20048;-69
2022/03/12 14:54:34;;;;;;;12.10;7.20;;;;;;;0.27;55.79;100133.84;4865251;29;20140;-70
2022/03/12 14:57:01;;;;;;;12.45;6.35;;;;;;;0.23;55.70;100132.16;4864405;29;20411;-71
2022/03/12 14:59:29;;;;;;;9.65;5.68;;;;;;;0.25;55.57;100127.75;4863652;29;20087;-70
2022/03/12 15:02:05;;;;;;;11.32;6.22;;;;;;;0.28;55.30;100132.94;4863637;29;20076;-71
2022/03/12 15:04:38;;;;;;;9.45;5.57;;;;;;;0.23;55.31;100136.53;4863989;29;20057;-70
2022/03/12 15:07:13;;;;;;;11.60;6.15;;;;;;;0.25;56.09;100142.63;4863078;29;20408;-70
2022/03/12 15:09:56;;;;;;;8.02;5.32;;;;;;;0.26;56.48;100139.97;4863315;29;20053;-70
2022/03/12 15:12:28;;;;;;;9.75;6.22;;;;;;;0.21;56.12;100157.56;4862026;29;20063;-70
2022/03/12 15:14:54;;;;;;;10.10;5.93;;;;;;;0.18;56.65;100155.00;4846490;29;20052;-69
2022/03/12 15:17:28;;;;;;;8.35;5.32;;;;;;;0.19;56.44;100159.38;4846288;29;20084;-70
2022/03/12 15:20:07;;;;;;;10.98;6.55;;;;;;;0.18;56.31;100168.13;4861749;29;20419;-71
2022/03/12 15:22:33;;;;;;;10.10;6.75;;;;;;;0.11;56.45;100173.53;4845553;29;20048;-71
2022/03/12 15:24:58;;;;;;;11.88;6.00;;;;;;;0.08;56.18;100166.59;4861430;29;20468;-70
2022/03/12 15:27:30;;;;;;;11.65;5.20;;;;;;;0.09;56.16;100173.56;4862585;29;20477;-70
2022/03/12 15:30:00;;;;;;;10.68;5.88;;;;;;;-0.02;56.50;100176.41;4863202;29;20076;-70
2022/03/12 15:32:31;;;;;;;13.43;6.75;;;;;;;-0.04;56.40;100188.66;4846534;29;20511;-71
2022/03/12 15:34:56;;;;;;;11.75;6.10;;;;;;;-0.07;56.53;100185.22;4845361;29;20738;-71
2022/03/12 15:37:38;;;;;;;10.98;6.35;;;;;;;-0.07;56.85;100186.09;4830696;29;20040;-70
2022/03/12 15:40:07;;;;;;;10.98;6.30;;;;;;;-0.14;56.76;100191.50;4847406;29;20048;-74
2022/03/12 15:42:38;;;;;;;9.52;5.63;;;;;;;-0.18;57.32;100190.69;4862895;29;20044;-71
2022/03/12 15:45:05;;;;;;;10.57;6.47;;;;;;;-0.20;57.28;100186.34;4865085;29;20055;-71
2022/03/12 15:47:30;;;;;;;12.70;6.57;;;;;;;-0.21;57.40;100195.09;4866233;29;20048;-71
2022/03/12 15:49:55;;;;;;;12.65;6.60;;;;;;;-0.25;57.44;100191.69;4866570;29;20055;-70
2022/03/12 15:52:20;;;;;;;10.35;6.15;;;;;;;-0.23;57.21;100196.91;4849169;29;20044;-70
2022/03/12 15:54:44;;;;;;;11.27;5.75;;;;;;;-0.24;57.41;100198.69;4861186;29;20048;-70
2022/03/12 15:57:11;;;;;;;11.95;6.85;;;;;;;-0.24;57.92;100195.19;4862551;29;20455;-69
2022/03/12 15:59:35;;;;;;;13.07;7.22;;;;;;;-0.24;57.64;100205.66;4861929;29;20128;-70
2022/03/12 16:02:02;;;;;;;11.77;7.47;;;;;;;-0.22;57.20;100204.72;4847297;29;20044;-71
2022/03/12 16:04:28;;;;;;;12.38;6.57;;;;;;;-0.25;57.46;100203.94;4850499;29;20045;-71
2022/03/12 16:06:55;;;;;;;11.82;7.07;;;;;;;-0.28;57.30;100204.00;4869366;29;20079;-70
2022/03/12 16:09:20;;;;;;;10.52;6.70;;;;;;;-0.27;57.40;100203.97;4846148;29;20053;-70
2022/03/12 16:11:46;;;;;;;17.05;7.13;;;;;;;-0.27;57.41;100200.47;4862149;29;20048;-70
2022/03/12 16:14:13;;;;;;;13.68;6.93;;;;;;;-0.27;57.58;100214.44;4861866;29;20052;-70
2022/03/12 16:16:39;;;;;;;11.35;7.57;;;;;;;-0.26;57.74;100207.44;4844564;29;20428;-70
2022/03/12 16:19:04;;;;;;;13.30;7.35;;;;;;;-0.26;57.84;100207.44;4861681;29;20080;-70
2022/03/12 16:21:30;;;;;;;13.73;6.90;;;;;;;-0.24;58.03;100218.78;4860466;29;20041;-71
2022/03/12 16:23:56;;;;;;;13.38;7.75;;;;;;;-0.24;57.63;100209.16;4861655;29;20048;-71
2022/03/12 16:26:20;;;;;;;15.85;7.65;;;;;;;-0.22;57.76;100216.97;4862273;29;20044;-71
2022/03/12 16:28:47;;;;;;;11.57;6.60;;;;;;;-0.21;57.41;100213.44;4862089;29;20056;-72
2022/03/12 16:31:12;;;;;;;12.32;6.88;;;;;;;-0.22;57.73;100223.06;4860737;29;21021;-71
2022/03/12 16:33:36;;;;;;;11.80;6.63;;;;;;;-0.23;57.53;100229.22;4860521;29;20507;-70
2022/03/12 16:36:03;;;;;;;11.75;7.55;;;;;;;-0.24;58.08;100235.34;4860750;29;20093;-70
2022/03/12 16:38:29;;;;;;;12.80;6.28;;;;;;;-0.25;58.33;100245.84;4862004;29;20147;-70
2022/03/12 16:40:56;;;;;;;11.50;6.68;;;;;;;-0.25;58.31;100245.84;4862081;29;20053;-70
2022/03/12 16:43:22;;;;;;;12.93;6.78;;;;;;;-0.27;58.38;100248.50;4862889;29;20066;-70
2022/03/12 16:45:50;;;;;;;14.25;6.68;;;;;;;-0.28;58.48;100257.25;4867316;29;20049;-70
2022/03/12 16:48:19;;;;;;;10.05;6.07;;;;;;;-0.28;58.48;100253.75;4861286;29;20049;-70
2022/03/12 16:50:44;;;;;;;10.85;6.38;;;;;;;-0.31;57.73;100252.06;4860554;29;20041;-70
2022/03/12 16:53:09;;;;;;;8.98;5.82;;;;;;;-0.35;57.56;100249.53;4829331;29;20415;-70
2022/03/12 16:55:34;;;;;;;14.05;6.75;;;;;;;-0.39;57.57;100248.72;4861390;29;20044;-70
2022/03/12 16:58:01;;;;;;;12.15;6.53;;;;;;;-0.42;57.86;100248.75;4860368;29;20048;-70
2022/03/12 17:00:32;;;;;;;12.57;6.70;;;;;;;-0.41;58.28;100255.72;4860745;29;20092;-69
2022/03/12 17:02:57;;;;;;;14.35;6.45;;;;;;;-0.41;58.09;100256.59;4862678;29;20087;-69
2022/03/12 17:05:25;;;;;;;11.05;6.18;;;;;;;-0.42;58.26;100252.25;4861345;29;20040;-70
2022/03/12 17:07:50;;;;;;;9.10;5.32;;;;;;;-0.43;58.78;100255.75;4863774;29;20527;-72
2022/03/12 17:10:15;;;;;;;14.80;6.72;;;;;;;-0.43;58.50;100258.38;4864906;29;20037;-70
2022/03/12 17:12:39;;;;;;;9.32;5.55;;;;;;;-0.42;58.17;100265.34;4865001;29;20040;-72
2022/03/12 17:15:07;;;;;;;10.15;6.65;;;;;;;-0.42;58.74;100260.09;4864959;29;20135;-71
2022/03/12 17:17:31;;;;;;;11.00;6.45;;;;;;;-0.39;58.22;100259.19;4848214;29;20052;-71
2022/03/12 17:19:57;;;;;;;10.10;5.82;;;;;;;-0.40;58.57;100260.94;4863576;29;20048;-72
2022/03/12 17:22:23;;;;;;;12.85;5.80;;;;;;;-0.41;58.99;100268.81;4865029;29;20044;-71
2022/03/12 17:24:48;;;;;;;13.73;6.45;;;;;;;-0.42;59.08;100267.97;4863620;29;20040;-73
2022/03/12 17:27:13;;;;;;;9.55;5.97;;;;;;;-0.43;59.45;100279.31;4863590;29;20048;-70
2022/03/12 17:29:39;;;;;;;12.10;6.55;;;;;;;-0.42;58.94;100270.56;4832908;29;20048;-70
2022/03/12 17:32:06;;;;;;;11.18;6.32;;;;;;;-0.47;58.36;100271.56;4848390;29;20045;-71
2022/03/12 17:34:33;;;;;;;11.38;6.22;;;;;;;-0.58;59.07;100268.25;4863271;29;20201;-71
2022/03/12 17:37:01;;;;;;;11.63;5.38;;;;;;;-0.63;58.77;100270.94;4848320;29;20051;-73
2022/03/12 17:39:27;;;;;;;11.15;6.13;;;;;;;-0.68;58.90;100266.69;4865084;29;20806;-71
2022/03/12 17:41:53;;;;;;;12.75;6.30;;;;;;;-0.78;59.36;100282.50;4863737;29;20213;-71
2022/03/12 17:44:21;;;;;;;11.75;5.90;;;;;;;-0.81;59.16;100293.03;4864282;29;20127;-70
2022/03/12 17:46:48;;;;;;;12.25;5.65;;;;;;;-0.85;59.59;100293.97;4864365;29;20052;-70
2022/03/12 17:49:14;;;;;;;11.50;6.28;;;;;;;-0.93;60.06;100294.97;4863461;29;20063;-70
2022/03/12 17:51:41;;;;;;;13.48;6.32;;;;;;;-1.00;60.40;100291.56;4865139;29;20045;-70
2022/03/12 17:54:10;;;;;;;11.23;6.03;;;;;;;-1.04;60.61;100299.50;4847833;29;20040;-71
2022/03/12 17:56:34;;;;;;;11.18;6.60;;;;;;;-1.07;60.93;100303.00;4883515;29;20048;-70
2022/03/12 17:58:59;;;;;;;12.52;6.32;;;;;;;-1.07;60.82;100289.06;4882197;29;20050;-71
2022/03/12 18:01:29;;;;;;;11.13;6.18;;;;;;;-1.07;61.15;100302.16;4882958;29;20176;-70
2022/03/12 18:03:56;;;;;;;12.07;6.05;;;;;;;-1.04;61.94;100309.97;4865857;29;20126;-71
2022/03/12 18:06:24;;;;;;;12.30;6.07;;;;;;;-1.03;60.93;100302.09;4881497;29;20521;-71
2022/03/12 18:08:50;;;;;;;13.68;5.68;;;;;;;-1.01;61.38;100305.53;4882109;29;20419;-70
2022/03/12 18:11:15;;;;;;;13.55;7.13;;;;;;;-0.99;61.82;100311.63;4881718;29;20392;-72
2022/03/12 18:13:40;;;;;;;9.88;5.68;;;;;;;-0.98;61.69;100304.63;4882599;29;20043;-70
2022/03/12 18:16:06;;;;;;;12.65;7.03;;;;;;;-0.95;62.16;100309.81;4880965;29;20068;-69
2022/03/12 18:18:31;;;;;;;10.95;6.35;;;;;;;-0.93;61.77;100308.06;4865101;29;20051;-70
2022/03/12 18:20:56;;;;;;;11.27;6.18;;;;;;;-0.93;62.31;100308.94;4882158;29;20047;-71
2022/03/12 18:23:22;;;;;;;12.60;7.07;;;;;;;-0.90;62.10;100308.84;4881873;29;20451;-71
2022/03/12 18:25:48;;;;;;;12.77;7.07;;;;;;;-0.88;61.70;100307.09;4881956;29;20407;-70
2022/03/12 18:28:24;;;;;;;11.63;7.05;;;;;;;-0.85;62.25;100304.44;4880940;29;20158;-71
2022/03/12 18:30:51;;;;;;;10.13;6.20;;;;;;;-0.83;62.09;100317.50;4871264;29;20044;-72
2022/03/12 18:33:17;;;;;;;11.82;6.55;;;;;;;-0.84;61.71;100308.78;4847352;29;20049;-70
2022/03/12 18:35:43;;;;;;;12.93;7.43;;;;;;;-0.82;62.42;100311.38;4847566;29;20052;-72
2022/03/12 18:38:08;;;;;;;11.55;6.18;;;;;;;-0.80;61.92;100317.47;4848316;29;20044;-72
2022/03/12 18:40:32;;;;;;;12.70;7.38;;;;;;;-0.83;61.92;100313.13;4847969;29;20050;-71
2022/03/12 18:42:58;;;;;;;11.70;6.50;;;;;;;-0.85;62.58;100319.28;4864111;29;20045;-69
2022/03/12 18:45:23;;;;;;;14.00;7.80;;;;;;;-0.84;62.15;100308.78;4847872;29;20044;-69
2022/03/12 18:47:51;;;;;;;11.98;7.72;;;;;;;-0.84;62.77;100303.56;4863309;29;20052;-68
2022/03/12 18:50:16;;;;;;;14.15;6.72;;;;;;;-0.83;62.53;100322.75;4865225;29;20069;-69
2022/03/12 18:52:42;;;;;;;16.25;7.00;;;;;;;-0.81;62.42;100307.88;4864102;29;20107;-71
2022/03/12 18:55:08;;;;;;;11.65;6.47;;;;;;;-0.82;61.86;100312.25;4865296;29;20087;-69
2022/03/12 18:57:35;;;;;;;10.10;6.10;;;;;;;-0.83;62.42;100321.00;4863753;29;20072;-68
2022/03/12 19:00:03;;;;;;;14.75;8.00;;;;;;;-0.85;62.12;100309.66;4865876;29;20420;-69
2022/03/12 19:02:30;;;;;;;13.15;7.78;;;;;;;-0.86;62.42;100317.53;4850272;29;20040;-70
2022/03/12 19:04:55;;;;;;;12.65;6.63;;;;;;;-0.87;62.61;100314.06;4859110;29;20028;-70
2022/03/12 19:07:22;;;;;;;11.63;6.57;;;;;;;-0.86;62.44;100320.16;4882991;29;20112;-70
2022/03/12 19:09:47;;;;;;;13.43;7.18;;;;;;;-0.85;62.68;100327.13;4883249;29;20044;-69
2022/03/12 19:12:13;;;;;;;11.63;6.70;;;;;;;-0.85;62.38;100327.13;4866308;29;20042;-69
2022/03/12 19:14:39;;;;;;;22.05;8.60;;;;;;;-0.88;62.40;100322.78;4881094;29;20044;-68
2022/03/12 19:17:06;;;;;;;16.77;7.00;;;;;;;-0.92;61.70;100321.13;4883026;29;20959;-68
2022/03/12 19:19:33;;;;;;;13.93;8.55;;;;;;;-0.92;61.05;100322.88;4881684;29;20048;-68
2022/03/12 19:21:58;;;;;;;16.00;8.00;;;;;;;-0.99;61.65;100322.06;4880928;29;20486;-68
2022/03/12 19:24:23;;;;;;;16.55;7.60;;;;;;;-1.03;61.83;100325.66;4894981;29;20407;-70
2022/03/12 19:26:56;;;;;;;20.65;9.20;;;;;;;-1.05;61.65;100334.41;4876586;29;20179;-70
2022/03/12 19:29:23;;;;;;;11.90;7.25;;;;;;;-1.07;61.82;100334.41;4890857;29;20374;-68
2022/03/12 19:31:49;;;;;;;15.65;8.30;;;;;;;-1.08;61.45;100339.66;4885324;29;20922;-68
2022/03/12 19:34:16;;;;;;;15.13;7.93;;;;;;;-1.08;61.63;100342.28;4864640;29;20047;-68
2022/03/12 19:36:43;;;;;;;12.43;7.03;;;;;;;-1.10;61.22;100343.16;4881534;29;20058;-68
2022/03/12 19:39:11;;;;;;;17.38;7.82;;;;;;;-1.10;61.20;100344.91;4881218;29;20083;-67
2022/03/12 19:41:37;;;;;;;15.90;7.80;;;;;;;-1.11;61.30;100351.91;4880072;29;20047;-67
2022/03/12 19:44:02;;;;;;;15.20;8.60;;;;;;;-1.11;61.15;100351.91;4865871;29;20048;-66